createdAt,value
2018-02-04T00:08:11.844Z,99.99
2018-02-04T00:17:41.011Z,99.99
2018-02-04T00:27:17.620Z,99.99
2018-02-04T00:36:53.714Z,99.99
2018-02-04T00:46:30.049Z,99.99
2018-02-04T00:56:06.843Z,99.99
2018-02-04T01:05:43.460Z,99.99
2018-02-04T01:15:20.346Z,99.99
2018-02-04T01:24:56.553Z,99.99
2018-02-04T01:34:33.104Z,99.99
2018-02-04T01:44:09.545Z,99.99
2018-02-04T01:53:46.480Z,99.99
2018-02-04T02:03:27.525Z,99.99
2018-02-04T02:12:56.165Z,99.99
2018-02-04T02:22:36.861Z,99.99
2018-02-04T02:32:05.883Z,99.99
2018-02-04T02:41:42.394Z,99.99
2018-02-04T02:51:23.233Z,99.99
2018-02-04T03:00:52.305Z,99.99
2018-02-04T03:10:28.660Z,99.99
2018-02-04T03:20:05.421Z,99.99
2018-02-04T03:29:42.193Z,99.99
2018-02-04T03:39:18.628Z,99.99
2018-02-04T03:48:54.982Z,99.99
2018-02-04T03:58:31.591Z,99.99
2018-02-04T04:08:07.926Z,99.99
2018-02-04T04:17:44.437Z,99.99
2018-02-04T04:27:21.046Z,99.99
2018-02-04T04:37:01.651Z,99.99
2018-02-04T04:46:35.063Z,99.99
2018-02-04T04:56:07.724Z,99.99
2018-02-04T05:05:36.724Z,99.99
2018-02-04T05:15:13.294Z,99.99
2018-02-04T05:24:49.773Z,99.99
2018-02-04T05:34:26.508Z,99.99
2018-02-04T05:44:06.931Z,99.99
2018-02-04T05:53:39.559Z,99.99
2018-02-04T06:03:08.517Z,99.99
2018-02-04T06:12:49.170Z,99.99
2018-02-04T06:22:18.616Z,99.99
2018-02-04T06:31:55.334Z,99.99
2018-02-04T06:41:31.580Z,99.99
2018-02-04T06:51:08.656Z,99.99
2018-02-04T07:00:45.779Z,99.99
2018-02-04T07:10:23.210Z,99.99
2018-02-04T07:19:59.905Z,99.99
2018-02-04T07:29:44.220Z,99.99
2018-02-04T07:39:14.028Z,99.99
2018-02-04T07:48:51.328Z,99.99
2018-02-04T07:58:28.387Z,98.07
2018-02-04T08:08:06.083Z,96.45
2018-02-04T08:17:43.170Z,93.54
2018-02-04T08:27:20.530Z,93.71
2018-02-04T08:36:57.853Z,93.84
2018-02-04T08:46:35.040Z,91.81
2018-02-04T08:56:11.988Z,90.58
2018-02-04T09:05:49.247Z,87.20
2018-02-04T09:15:30.736Z,86.77
2018-02-04T09:25:00.426Z,85.49
2018-02-04T09:34:37.774Z,83.51
2018-02-04T09:44:14.628Z,84.37
2018-02-04T09:53:51.837Z,84.22
2018-02-04T10:03:28.633Z,82.14
2018-02-04T10:13:06.195Z,78.92
2018-02-04T10:22:43.648Z,76.98
2018-02-04T10:32:20.006Z,73.74
2018-02-04T10:41:57.311Z,65.19
2018-02-04T10:51:34.646Z,70.05
2018-02-04T11:01:15.281Z,69.47
2018-02-04T11:10:48.515Z,63.99
2018-02-04T11:20:21.153Z,57.57
2018-02-04T11:29:55.186Z,53.69
2018-02-04T11:39:27.841Z,55.00
2018-02-04T11:49:00.940Z,54.20
2018-02-04T11:58:32.366Z,55.85
2018-02-04T12:08:01.423Z,54.90
2018-02-04T12:17:40.553Z,56.26
2018-02-04T12:27:11.521Z,55.20
2018-02-04T12:36:43.458Z,55.72
2018-02-04T12:46:16.367Z,57.99
2018-02-04T12:55:48.952Z,57.60
2018-02-04T13:05:20.984Z,58.56
2018-02-04T13:14:49.255Z,69.56
2018-02-04T13:24:29.870Z,72.22
2018-02-04T13:34:03.113Z,72.71
2018-02-04T13:43:31.846Z,71.63
2018-02-04T13:53:07.442Z,70.84
2018-02-04T14:02:47.666Z,71.28
2018-02-04T14:12:20.288Z,74.81
2018-02-04T14:21:49.202Z,81.37
2018-02-04T14:31:24.391Z,82.80
2018-02-04T14:41:00.304Z,80.87
2018-02-04T14:50:36.411Z,81.42
2018-02-04T15:00:12.288Z,84.61
2018-02-04T15:09:48.162Z,87.66
2018-02-04T15:19:24.399Z,88.29
2018-02-04T15:28:59.962Z,88.71
2018-02-04T15:38:35.723Z,92.68
2018-02-04T15:48:11.234Z,92.77
2018-02-04T15:57:46.955Z,95.67
2018-02-04T16:07:26.483Z,98.01
2018-02-04T16:16:54.198Z,99.35
2018-02-04T16:26:30.117Z,99.82
2018-02-04T16:36:06.338Z,99.99
2018-02-04T16:45:42.725Z,99.99
2018-02-04T16:55:23.468Z,99.99
2018-02-04T17:04:51.982Z,99.99
2018-02-04T17:14:28.276Z,99.99
2018-02-04T17:24:05.250Z,99.99
2018-02-04T17:33:41.846Z,99.99
2018-02-04T17:43:17.934Z,99.99
2018-02-04T17:52:58.018Z,99.99
2018-02-04T18:02:26.828Z,99.99
2018-02-04T18:12:07.044Z,99.99
2018-02-04T18:21:39.887Z,99.99
2018-02-04T18:31:08.634Z,99.99
2018-02-04T18:40:44.599Z,99.99
2018-02-04T18:50:20.604Z,99.99
2018-02-04T18:59:56.886Z,99.99
2018-02-04T19:09:33.385Z,99.99
2018-02-04T19:19:09.731Z,99.99
2018-02-04T19:28:46.242Z,99.99
2018-02-04T19:38:26.790Z,99.99
2018-02-04T19:47:59.714Z,99.99
2018-02-04T19:57:28.740Z,99.99
2018-02-04T20:07:04.946Z,99.99
2018-02-04T20:16:41.290Z,99.99
2018-02-04T20:26:17.667Z,99.99
2018-02-04T20:35:54.401Z,99.99
2018-02-04T20:45:31.301Z,99.99
2018-02-04T20:55:07.517Z,99.99
2018-02-04T21:04:43.648Z,99.99
2018-02-04T21:14:23.881Z,99.99
2018-02-04T21:23:52.942Z,99.99
2018-02-04T21:33:29.567Z,99.99
2018-02-04T21:43:10.256Z,99.99
2018-02-04T21:52:39.178Z,99.99
2018-02-04T22:02:15.641Z,99.99
2018-02-04T22:11:51.966Z,99.99
2018-02-04T22:21:28.696Z,99.99
2018-02-04T22:31:05.748Z,99.99
2018-02-04T22:40:41.968Z,99.99
2018-02-04T22:50:18.875Z,99.99
2018-02-04T22:59:59.325Z,99.99
2018-02-04T23:09:28.443Z,99.99
2018-02-04T23:19:05.027Z,99.99
2018-02-04T23:28:41.915Z,99.99
2018-02-04T23:38:18.883Z,99.99
2018-02-04T23:47:56.154Z,99.99
2018-02-04T23:57:33.446Z,99.99
